Time;durP1;ratioP1;P1;durP2;ratioP2;P2;SDS_P1;SDS_P2;PMS_P1;PMS_P2;Temp;Humidity;BMP_temperature;BMP_pressure;BME280_temperature;BME280_humidity;BME280_pressure;Samples;Min_cycle;Max_cycle;Signal;HPM_P1;HPM_P2
2022/01/22 00:00:57;;;;;;;;;;;-4.40;99.90;;;;;;4123770;28;19953;-58
2022/01/22 00:02:58;;;;;;;;;;;-4.40;99.90;;;;;;4123301;28;19918;-56
2022/01/22 00:04:59;;;;;;;;;;;-4.40;99.90;;;;;;4124676;28;19909;-55
2022/01/22 00:07:02;;;;;;;;;;;-4.50;99.90;;;;;;4123119;28;19917;-57
2022/01/22 00:09:04;;;;;;;;;;;-4.50;99.90;;;;;;4124489;28;20000;-56
2022/01/22 00:11:05;;;;;;;;;;;-4.50;99.90;;;;;;4123258;28;19909;-58
2022/01/22 00:14:23;;;;;;;;;;;-4.60;99.90;;;;;;4124286;28;19909;-57
2022/01/22 00:15:30;;;;;;;;;;;-4.60;99.90;;;;;;4123244;28;19917;-58
2022/01/22 00:17:31;;;;;;;;;;;-4.60;99.90;;;;;;4125183;28;20031;-57
2022/01/22 00:19:32;;;;;;;;;;;-4.60;99.90;;;;;;4123640;28;19910;-57
2022/01/22 00:21:33;;;;;;;;;;;-4.70;99.90;;;;;;4124054;28;19906;-55
2022/01/22 00:23:37;;;;;;;;;;;-4.70;99.90;;;;;;4123957;28;20309;-58
2022/01/22 00:25:38;;;;;;;;;;;-4.80;99.90;;;;;;4124331;28;20412;-58
2022/01/22 00:27:40;;;;;;;;;;;-4.80;99.90;;;;;;4123966;28;20401;-59
2022/01/22 00:29:41;;;;;;;;;;;-4.80;99.90;;;;;;4124323;28;20878;-58
2022/01/22 00:31:42;;;;;;;;;;;-4.90;99.90;;;;;;4123874;28;19917;-59
2022/01/22 00:33:43;;;;;;;;;;;-4.90;99.90;;;;;;4123708;28;20350;-62
2022/01/22 00:35:44;;;;;;;;;;;-5.00;99.90;;;;;;4123441;28;19909;-55
2022/01/22 00:37:47;;;;;;;;;;;-5.00;99.90;;;;;;4123339;28;19941;-51
2022/01/22 00:39:48;;;;;;;;;;;-5.00;99.90;;;;;;4123857;28;19909;-55
2022/01/22 00:41:49;;;;;;;;;;;-5.00;99.90;;;;;;4123333;28;20077;-55
2022/01/22 00:43:50;;;;;;;;;;;-5.00;99.90;;;;;;4124255;28;20452;-51
2022/01/22 00:45:51;;;;;;;;;;;-5.00;99.90;;;;;;4123576;28;19993;-55
2022/01/22 00:47:52;;;;;;;;;;;-5.10;99.90;;;;;;4124368;28;19917;-55
2022/01/22 00:49:53;;;;;;;;;;;-5.00;99.90;;;;;;4123212;28;20354;-55
2022/01/22 00:51:54;;;;;;;;;;;-5.10;99.90;;;;;;4123637;28;19910;-55
2022/01/22 00:53:55;;;;;;;;;;;-5.10;99.90;;;;;;4123095;28;19960;-56
2022/01/22 00:55:55;;;;;;;;;;;-5.10;99.90;;;;;;4123815;28;19910;-56
2022/01/22 00:57:56;;;;;;;;;;;-5.10;99.90;;;;;;4124184;28;19912;-55
2022/01/22 00:59:57;;;;;;;;;;;-5.10;99.90;;;;;;4123956;28;19916;-58
2022/01/22 01:01:58;;;;;;;;;;;-5.10;99.90;;;;;;4123551;28;21430;-56
2022/01/22 01:04:02;;;;;;;;;;;-5.10;99.90;;;;;;4123402;28;19914;-58
2022/01/22 01:06:04;;;;;;;;;;;-5.20;99.90;;;;;;4124108;28;20392;-58
2022/01/22 01:08:05;;;;;;;;;;;-5.20;99.90;;;;;;4123631;28;19968;-57
2022/01/22 01:10:07;;;;;;;;;;;-5.20;99.90;;;;;;4123656;28;20354;-58
2022/01/22 01:12:11;;;;;;;;;;;-5.20;99.90;;;;;;4123494;28;19930;-57
2022/01/22 01:14:17;;;;;;;;;;;-5.20;99.90;;;;;;4123642;28;19968;-56
2022/01/22 01:16:43;;;;;;;;;;;-5.20;99.90;;;;;;4123195;28;19906;-56
2022/01/22 01:32:49;;;;;;;;;;;-5.70;99.90;;;;;;4127144;28;19979;-56
2022/01/22 01:34:51;;;;;;;;;;;-5.70;99.90;;;;;;4126233;28;19918;-57
2022/01/22 01:36:53;;;;;;;;;;;-5.70;99.90;;;;;;4126220;28;19910;-57
2022/01/22 01:38:58;;;;;;;;;;;-5.70;99.90;;;;;;4126147;28;19910;-58
2022/01/22 01:41:07;;;;;;;;;;;-5.80;99.90;;;;;;4126078;28;20673;-57
2022/01/22 01:43:26;;;;;;;;;;;-5.80;99.90;;;;;;4125911;28;19910;-56
2022/01/22 01:45:27;;;;;;;;;;;-5.80;99.90;;;;;;4126174;28;19910;-54
2022/01/22 01:47:28;;;;;;;;;;;-5.80;99.90;;;;;;4126229;28;19905;-56
2022/01/22 01:49:30;;;;;;;;;;;-5.90;99.90;;;;;;4125897;28;19944;-58
2022/01/22 01:51:33;;;;;;;;;;;-5.90;99.90;;;;;;4125669;28;20358;-57
2022/01/22 01:53:50;;;;;;;;;;;-5.90;99.90;;;;;;4126035;28;19972;-57
2022/01/22 01:57:59;;;;;;;;;;;-5.90;99.90;;;;;;4125376;28;19913;-55
2022/01/22 02:00:00;;;;;;;;;;;-5.90;99.90;;;;;;4125629;28;19906;-58
2022/01/22 02:02:01;;;;;;;;;;;-5.90;99.90;;;;;;4125600;28;19917;-57
2022/01/22 02:04:02;;;;;;;;;;;-5.90;99.90;;;;;;4125569;28;19909;-55
2022/01/22 02:06:03;;;;;;;;;;;-5.90;99.90;;;;;;4126005;28;20385;-56
2022/01/22 02:08:04;;;;;;;;;;;-5.90;99.90;;;;;;4124196;28;19909;-56
2022/01/22 02:10:07;;;;;;;;;;;-5.90;99.90;;;;;;4126048;28;19913;-53
2022/01/22 02:12:19;;;;;;;;;;;-5.90;99.90;;;;;;4125321;28;19913;-52
2022/01/22 02:25:35;;;;;;;;;;;-5.80;99.90;;;;;;4124983;28;19909;-55
2022/01/22 02:27:36;;;;;;;;;;;-5.80;99.90;;;;;;4125899;28;20294;-52
2022/01/22 02:29:37;;;;;;;;;;;-5.80;99.90;;;;;;4124790;28;19913;-52
2022/01/22 02:31:42;;;;;;;;;;;-5.90;99.90;;;;;;4124528;28;19910;-56
2022/01/22 02:36:17;;;;;;;;;;;-5.90;99.90;;;;;;4125765;28;19971;-54
2022/01/22 02:38:26;;;;;;;;;;;-5.80;99.90;;;;;;4124715;28;19914;-54
2022/01/22 02:40:32;;;;;;;;;;;-5.90;99.90;;;;;;4125611;28;19913;-54
2022/01/22 02:42:35;;;;;;;;;;;-5.80;99.90;;;;;;4124562;28;20034;-57
2022/01/22 02:44:44;;;;;;;;;;;-5.80;99.90;;;;;;4125667;28;19956;-55
2022/01/22 02:46:46;;;;;;;;;;;-5.80;99.90;;;;;;4124785;28;20000;-55
2022/01/22 02:48:47;;;;;;;;;;;-5.80;99.90;;;;;;4125103;28;19913;-54
2022/01/22 02:50:47;;;;;;;;;;;-5.80;99.90;;;;;;4123513;28;20408;-56
2022/01/22 02:52:48;;;;;;;;;;;-5.80;99.90;;;;;;4125414;28;20333;-56
2022/01/22 02:54:50;;;;;;;;;;;-5.80;99.90;;;;;;4124890;28;20350;-55
2022/01/22 02:56:50;;;;;;;;;;;-5.80;99.90;;;;;;4125196;28;20531;-57
2022/01/22 02:58:52;;;;;;;;;;;-5.90;99.90;;;;;;4125075;28;20000;-57
2022/01/22 03:00:53;;;;;;;;;;;-5.90;99.90;;;;;;4124654;28;20000;-53
2022/01/22 03:02:54;;;;;;;;;;;-5.90;99.90;;;;;;4124582;28;19921;-55
2022/01/22 03:04:55;;;;;;;;;;;-5.90;99.90;;;;;;4124580;28;19917;-57
2022/01/22 03:06:56;;;;;;;;;;;-5.90;99.90;;;;;;4124781;28;19909;-55
2022/01/22 03:08:57;;;;;;;;;;;-5.90;99.90;;;;;;4123168;28;19905;-56
2022/01/22 03:11:00;;;;;;;;;;;-5.90;99.90;;;;;;4124983;28;20329;-55
2022/01/22 03:21:54;;;;;;;;;;;-5.70;99.90;;;;;;4124160;28;20326;-54
2022/01/22 03:28:41;;;;;;;;;;;-5.60;99.90;;;;;;4124830;28;20455;-57
2022/01/22 03:30:41;;;;;;;;;;;-5.60;99.90;;;;;;4124249;28;19995;-55
2022/01/22 03:32:46;;;;;;;;;;;-5.60;99.90;;;;;;4124470;28;19910;-55
2022/01/22 03:34:56;;;;;;;;;;;-5.60;99.90;;;;;;4124184;28;19918;-56
2022/01/22 03:36:57;;;;;;;;;;;-5.60;99.90;;;;;;4124758;28;19972;-55
2022/01/22 03:38:59;;;;;;;;;;;-5.60;99.90;;;;;;4123972;28;19909;-56
2022/01/22 03:41:00;;;;;;;;;;;-5.70;99.90;;;;;;4124390;28;19913;-55
2022/01/22 03:43:01;;;;;;;;;;;-5.70;99.90;;;;;;4123233;28;19917;-55
2022/01/22 03:45:03;;;;;;;;;;;-5.70;99.90;;;;;;4124425;28;19949;-54
2022/01/22 03:47:04;;;;;;;;;;;-5.80;99.90;;;;;;4123819;28;19979;-56
2022/01/22 03:49:05;;;;;;;;;;;-5.90;99.90;;;;;;4124626;28;19952;-54
2022/01/22 03:51:06;;;;;;;;;;;-5.90;99.90;;;;;;4123995;28;20307;-52
2022/01/22 03:53:07;;;;;;;;;;;-6.00;99.90;;;;;;4124124;28;19910;-56
2022/01/22 03:55:11;;;;;;;;;;;-6.00;99.90;;;;;;4123794;28;19917;-57
2022/01/22 03:57:13;;;;;;;;;;;-6.10;99.90;;;;;;4124006;28;19909;-55
2022/01/22 03:59:15;;;;;;;;;;;-6.10;99.90;;;;;;4124453;28;19984;-56
2022/01/22 04:03:33;;;;;;;;;;;-6.20;99.90;;;;;;4124032;28;19909;-56
2022/01/22 04:05:39;;;;;;;;;;;-6.20;99.90;;;;;;4123967;28;19910;-54
2022/01/22 04:08:16;;;;;;;;;;;-6.20;99.90;;;;;;4123911;28;19960;-55
2022/01/22 04:10:09;;;;;;;;;;;-6.30;99.90;;;;;;4122779;28;19952;-57
2022/01/22 04:12:12;;;;;;;;;;;-6.20;99.90;;;;;;4123975;28;20420;-51
2022/01/22 04:14:18;;;;;;;;;;;-6.30;99.90;;;;;;4126766;28;20414;-53
2022/01/22 04:16:20;;;;;;;;;;;-6.20;99.90;;;;;;4124062;28;19949;-55
2022/01/22 04:25:23;;;;;;;;;;;-6.30;99.90;;;;;;4123951;28;20015;-55
2022/01/22 04:27:27;;;;;;;;;;;-6.30;99.90;;;;;;4123827;28;20437;-51
2022/01/22 04:29:27;;;;;;;;;;;-6.30;99.90;;;;;;4123855;28;19964;-55
2022/01/22 04:31:28;;;;;;;;;;;-6.30;99.90;;;;;;4123686;28;19910;-54
2022/01/22 04:33:29;;;;;;;;;;;-6.30;99.90;;;;;;4123948;28;19910;-55
2022/01/22 04:35:31;;;;;;;;;;;-6.30;99.90;;;;;;4123288;28;19922;-55
2022/01/22 04:37:32;;;;;;;;;;;-6.40;99.90;;;;;;4123811;28;20341;-58
2022/01/22 04:39:33;;;;;;;;;;;-6.40;99.90;;;;;;4122096;28;19910;-53
2022/01/22 04:41:34;;;;;;;;;;;-6.40;99.90;;;;;;4123876;28;20662;-57
2022/01/22 04:43:38;;;;;;;;;;;-6.40;99.90;;;;;;4122677;28;19910;-57
2022/01/22 04:45:51;;;;;;;;;;;-6.50;99.90;;;;;;4123817;28;20435;-56
2022/01/22 04:56:52;;;;;;;;;;;-6.60;99.90;;;;;;4126867;28;20017;-53
2022/01/22 04:58:53;;;;;;;;;;;-6.60;99.90;;;;;;4127120;28;20055;-55
2022/01/22 05:00:54;;;;;;;;;;;-6.70;99.90;;;;;;4125658;28;19965;-56
2022/01/22 05:02:54;;;;;;;;;;;-6.90;99.90;;;;;;4127223;28;19936;-55
2022/01/22 05:04:55;;;;;;;;;;;-7.00;99.90;;;;;;4125629;28;19917;-55
2022/01/22 05:06:56;;;;;;;;;;;-7.00;99.90;;;;;;4125405;28;19909;-57
2022/01/22 05:08:57;;;;;;;;;;;-7.00;99.90;;;;;;4126568;28;19909;-57
2022/01/22 05:10:58;;;;;;;;;;;-7.00;99.90;;;;;;4126468;28;20256;-52
2022/01/22 05:12:59;;;;;;;;;;;-7.00;99.90;;;;;;4126199;28;19957;-58
2022/01/22 05:15:00;;;;;;;;;;;-7.00;99.90;;;;;;4126362;28;19922;-58
2022/01/22 05:17:04;;;;;;;;;;;-7.10;99.90;;;;;;4126501;28;19960;-58
2022/01/22 05:19:14;;;;;;;;;;;-7.10;99.90;;;;;;4126700;28;19913;-51
2022/01/22 05:21:17;;;;;;;;;;;-7.20;99.90;;;;;;4126307;28;19956;-57
2022/01/22 05:23:22;;;;;;;;;;;-7.10;99.90;;;;;;4126251;28;19952;-58
2022/01/22 05:25:35;;;;;;;;;;;-7.10;99.90;;;;;;4126668;28;19906;-52
2022/01/22 05:27:57;;;;;;;;;;;-7.10;99.90;;;;;;4126282;28;19964;-58
2022/01/22 05:37:04;;;;;;;;;;;-7.00;99.90;;;;;;4110009;28;19973;-56
2022/01/22 05:39:09;;;;;;;;;;;-7.10;99.90;;;;;;4115464;28;19936;-58
2022/01/22 05:41:11;;;;;;;;;;;-7.10;99.90;;;;;;4124850;28;19952;-54
2022/01/22 05:43:11;;;;;;;;;;;-7.20;99.90;;;;;;4126081;28;19968;-57
2022/01/22 05:45:12;;;;;;;;;;;-7.30;99.90;;;;;;4125661;28;20297;-56
2022/01/22 05:47:20;;;;;;;;;;;-7.30;99.90;;;;;;4125691;28;20020;-56
2022/01/22 05:49:22;;;;;;;;;;;-7.40;99.90;;;;;;4126036;28;19960;-57
2022/01/22 05:51:24;;;;;;;;;;;-7.40;99.90;;;;;;4119365;28;19910;-54
2022/01/22 06:00:07;;;;;;;;;;;-7.30;99.90;;;;;;4124843;28;20338;-58
2022/01/22 06:02:09;;;;;;;;;;;-7.30;99.90;;;;;;4124783;28;19972;-58
2022/01/22 06:04:10;;;;;;;;;;;-7.30;99.90;;;;;;4125012;28;19914;-58
2022/01/22 06:06:11;;;;;;;;;;;-7.30;99.90;;;;;;4124912;28;20208;-56
2022/01/22 06:08:15;;;;;;;;;;;-7.20;99.90;;;;;;4124881;28;19910;-56
2022/01/22 06:10:18;;;;;;;;;;;-7.20;99.90;;;;;;4125295;28;19909;-55
2022/01/22 06:12:33;;;;;;;;;;;-7.20;99.90;;;;;;4125871;28;19914;-58
2022/01/22 06:14:34;;;;;;;;;;;-7.20;99.90;;;;;;4125303;28;19942;-56
2022/01/22 06:16:36;;;;;;;;;;;-7.20;99.90;;;;;;4125894;28;19918;-55
2022/01/22 06:18:38;;;;;;;;;;;-7.20;99.90;;;;;;4124330;28;19909;-56
2022/01/22 06:20:39;;;;;;;;;;;-7.20;99.90;;;;;;4125705;28;19956;-52
2022/01/22 06:22:41;;;;;;;;;;;-7.20;99.90;;;;;;4118920;28;19913;-61
2022/01/22 06:24:41;;;;;;;;;;;-7.30;99.90;;;;;;4120531;28;19960;-53
2022/01/22 06:26:42;;;;;;;;;;;-7.30;99.90;;;;;;4116420;28;19922;-58
2022/01/22 06:28:43;;;;;;;;;;;-7.40;99.90;;;;;;4124816;28;19997;-56
2022/01/22 06:30:46;;;;;;;;;;;-7.30;99.90;;;;;;4119936;28;19933;-56
2022/01/22 06:32:47;;;;;;;;;;;-7.30;99.90;;;;;;4116977;28;19960;-57
2022/01/22 06:34:47;;;;;;;;;;;-7.20;99.90;;;;;;4120529;28;19913;-53
2022/01/22 06:36:48;;;;;;;;;;;-7.20;99.90;;;;;;4125130;28;19918;-58
2022/01/22 06:38:56;;;;;;;;;;;-7.20;99.90;;;;;;4124733;28;19920;-53
2022/01/22 06:43:16;;;;;;;;;;;-7.10;99.90;;;;;;4124404;28;19944;-55
2022/01/22 06:45:17;;;;;;;;;;;-7.10;99.90;;;;;;4123009;28;20312;-58
2022/01/22 06:47:18;;;;;;;;;;;-7.10;99.90;;;;;;4123762;28;19913;-58
2022/01/22 06:49:19;;;;;;;;;;;-7.10;99.90;;;;;;4124701;28;19909;-60
2022/01/22 06:51:22;;;;;;;;;;;-7.00;99.90;;;;;;4125276;28;20357;-56
2022/01/22 06:53:23;;;;;;;;;;;-7.00;99.90;;;;;;4124271;28;20301;-58
2022/01/22 06:56:02;;;;;;;;;;;-6.90;99.90;;;;;;4125185;28;19917;-60
2022/01/22 06:57:53;;;;;;;;;;;-6.80;99.90;;;;;;4122348;28;19914;-58
2022/01/22 06:59:54;;;;;;;;;;;-6.60;99.90;;;;;;4119618;28;20394;-58
2022/01/22 07:01:56;;;;;;;;;;;-6.50;99.90;;;;;;4107664;28;20024;-57
2022/01/22 07:03:57;;;;;;;;;;;-6.40;99.90;;;;;;4108988;28;19910;-53
2022/01/22 07:05:58;;;;;;;;;;;-6.30;99.90;;;;;;4109016;28;19957;-58
2022/01/22 07:07:59;;;;;;;;;;;-6.30;99.90;;;;;;4108646;28;19932;-56
2022/01/22 07:10:00;;;;;;;;;;;-6.20;99.90;;;;;;4108367;28;19920;-53
2022/01/22 07:12:01;;;;;;;;;;;-6.10;99.90;;;;;;4108708;28;20292;-56
2022/01/22 07:14:03;;;;;;;;;;;-6.00;99.90;;;;;;4108019;28;19906;-57
2022/01/22 07:16:05;;;;;;;;;;;-6.00;99.90;;;;;;4122262;28;19988;-58
2022/01/22 07:18:06;;;;;;;;;;;-5.90;99.90;;;;;;4124403;28;19905;-57
2022/01/22 07:20:14;;;;;;;;;;;-5.80;99.90;;;;;;4124580;28;19913;-56
2022/01/22 07:22:39;;;;;;;;;;;-5.90;99.90;;;;;;4107861;28;19917;-57
2022/01/22 07:24:41;;;;;;;;;;;-5.90;99.90;;;;;;4118150;28;19913;-59
2022/01/22 07:26:42;;;;;;;;;;;-5.90;99.90;;;;;;4124526;28;19905;-58
2022/01/22 07:28:43;;;;;;;;;;;-5.80;99.90;;;;;;4124132;28;19910;-58
2022/01/22 07:30:46;;;;;;;;;;;-5.70;99.90;;;;;;4124055;28;19964;-55
2022/01/22 07:32:47;;;;;;;;;;;-5.70;99.90;;;;;;4123759;28;20414;-56
2022/01/22 07:34:48;;;;;;;;;;;-5.80;99.90;;;;;;4122610;28;19920;-60
2022/01/22 07:36:49;;;;;;;;;;;-5.80;99.90;;;;;;4123771;28;20405;-57
2022/01/22 07:38:50;;;;;;;;;;;-5.90;99.90;;;;;;4124047;28;19921;-55
2022/01/22 07:40:51;;;;;;;;;;;-5.90;99.90;;;;;;4117813;28;19924;-57
2022/01/22 07:42:52;;;;;;;;;;;-5.90;99.90;;;;;;4124102;28;19905;-59
2022/01/22 07:44:53;;;;;;;;;;;-5.90;99.90;;;;;;4123235;28;19979;-58
2022/01/22 07:46:53;;;;;;;;;;;-5.80;99.90;;;;;;4123713;28;19928;-57
2022/01/22 07:48:54;;;;;;;;;;;-5.80;99.90;;;;;;4121079;28;20110;-57
2022/01/22 07:50:55;;;;;;;;;;;-5.80;99.90;;;;;;4121781;28;19920;-55
2022/01/22 07:52:57;;;;;;;;;;;-5.90;99.90;;;;;;4123544;28;19921;-51
2022/01/22 07:54:58;;;;;;;;;;;-6.00;99.90;;;;;;4122872;28;21679;-57
2022/01/22 07:56:59;;;;;;;;;;;-6.10;99.90;;;;;;4121160;28;19964;-56
2022/01/22 07:59:00;;;;;;;;;;;-6.20;99.90;;;;;;4119908;28;19914;-60
2022/01/22 08:01:01;;;;;;;;;;;-6.20;99.90;;;;;;4108036;28;19910;-58
2022/01/22 08:03:04;;;;;;;;;;;-6.30;99.90;;;;;;4107293;28;19926;-57
2022/01/22 08:05:05;;;;;;;;;;;-6.20;99.90;;;;;;4107738;28;19918;-59
2022/01/22 08:07:06;;;;;;;;;;;-6.20;99.90;;;;;;4107066;28;20436;-55
2022/01/22 08:09:07;;;;;;;;;;;-6.10;99.90;;;;;;4107719;28;19945;-57
2022/01/22 08:11:08;;;;;;;;;;;-6.10;99.90;;;;;;4106828;28;19910;-56
2022/01/22 08:13:09;;;;;;;;;;;-6.00;99.90;;;;;;4116853;28;19924;-58
2022/01/22 08:15:11;;;;;;;;;;;-6.00;99.90;;;;;;4122713;28;19937;-56
2022/01/22 08:17:12;;;;;;;;;;;-6.00;99.90;;;;;;4123107;28;20369;-57
2022/01/22 08:19:14;;;;;;;;;;;-5.90;99.90;;;;;;4123693;28;20008;-56
2022/01/22 08:21:15;;;;;;;;;;;-5.90;99.90;;;;;;4118688;28;20445;-60
2022/01/22 08:23:16;;;;;;;;;;;-5.90;99.90;;;;;;4123503;28;19956;-59
2022/01/22 08:25:17;;;;;;;;;;;-5.80;99.90;;;;;;4123603;28;20044;-55
2022/01/22 08:27:33;;;;;;;;;;;-5.80;99.90;;;;;;4123469;28;19914;-56
2022/01/22 08:29:34;;;;;;;;;;;-5.80;99.90;;;;;;4125782;28;19957;-57
2022/01/22 08:35:55;;;;;;;;;;;-5.70;99.90;;;;;;4111001;28;19972;-61
2022/01/22 08:37:56;;;;;;;;;;;-5.60;99.90;;;;;;4110444;28;19910;-54
2022/01/22 08:39:58;;;;;;;;;;;-5.50;99.90;;;;;;4110302;28;19906;-56
2022/01/22 08:41:59;;;;;;;;;;;-5.50;99.90;;;;;;4108671;28;19991;-61
2022/01/22 08:44:00;;;;;;;;;;;-5.40;99.90;;;;;;4111020;28;19906;-57
2022/01/22 08:46:02;;;;;;;;;;;-5.30;99.90;;;;;;4109820;28;20013;-61
2022/01/22 08:48:04;;;;;;;;;;;-5.20;99.90;;;;;;4123462;28;19909;-60
2022/01/22 08:50:06;;;;;;;;;;;-5.10;99.90;;;;;;4126141;28;19992;-58
2022/01/22 08:52:15;;;;;;;;;;;-4.90;99.90;;;;;;4112650;28;20386;-58
2022/01/22 08:54:16;;;;;;;;;;;-4.70;99.90;;;;;;4109850;28;19914;-57
2022/01/22 08:56:17;;;;;;;;;;;-4.60;99.90;;;;;;4121236;28;19944;-62
2022/01/22 08:58:18;;;;;;;;;;;-4.30;99.90;;;;;;4119184;28;19914;-58
2022/01/22 09:00:19;;;;;;;;;;;-4.30;99.90;;;;;;4110416;28;19920;-61
2022/01/22 09:02:20;;;;;;;;;;;-4.20;99.90;;;;;;4109925;28;19925;-61
2022/01/22 09:04:21;;;;;;;;;;;-4.00;99.90;;;;;;4110235;28;19914;-59
2022/01/22 09:06:22;;;;;;;;;;;-3.70;99.90;;;;;;4110113;28;19921;-61
2022/01/22 09:08:24;;;;;;;;;;;-3.50;99.90;;;;;;4109394;28;20005;-61
2022/01/22 09:10:25;;;;;;;;;;;-3.20;99.90;;;;;;4109687;28;19980;-58
2022/01/22 09:12:26;;;;;;;;;;;-3.10;99.90;;;;;;4109839;28;20637;-60
2022/01/22 09:14:27;;;;;;;;;;;-2.90;99.90;;;;;;4111307;28;19980;-60
2022/01/22 09:16:28;;;;;;;;;;;-2.60;99.90;;;;;;4125446;28;20008;-59
2022/01/22 09:18:29;;;;;;;;;;;-2.30;99.90;;;;;;4126383;28;20317;-58
2022/01/22 09:21:16;;;;;;;;;;;-1.80;99.90;;;;;;4125733;28;19960;-61
2022/01/22 09:22:51;;;;;;;;;;;-1.50;99.90;;;;;;4122249;28;20327;-61
2022/01/22 09:24:52;;;;;;;;;;;-1.50;99.90;;;;;;4125327;28;19917;-60
2022/01/22 09:26:55;;;;;;;;;;;-1.70;99.90;;;;;;4126314;28;19909;-59
2022/01/22 09:28:59;;;;;;;;;;;-1.90;99.90;;;;;;4125634;28;19913;-60
2022/01/22 09:30:59;;;;;;;;;;;-2.10;99.90;;;;;;4126235;28;20004;-60
2022/01/22 09:33:00;;;;;;;;;;;-2.30;99.90;;;;;;4125653;28;19932;-61
2022/01/22 09:35:01;;;;;;;;;;;-2.30;99.90;;;;;;4125712;28;20341;-60
2022/01/22 09:37:03;;;;;;;;;;;-2.40;99.90;;;;;;4125504;28;19921;-61
2022/01/22 09:39:05;;;;;;;;;;;-2.30;99.90;;;;;;4126101;28;20895;-61
2022/01/22 09:41:06;;;;;;;;;;;-2.20;99.90;;;;;;4124909;28;19909;-60
2022/01/22 09:43:09;;;;;;;;;;;-2.10;99.90;;;;;;4125751;28;19909;-58
2022/01/22 09:45:10;;;;;;;;;;;-2.30;99.90;;;;;;4125625;28;20322;-59
2022/01/22 09:47:11;;;;;;;;;;;-2.30;99.90;;;;;;4125516;28;20350;-60
2022/01/22 09:49:12;;;;;;;;;;;-2.50;99.90;;;;;;4125885;28;19964;-59
2022/01/22 09:51:13;;;;;;;;;;;-2.60;99.90;;;;;;4125417;28;19940;-60
2022/01/22 09:53:14;;;;;;;;;;;-2.60;99.90;;;;;;4126033;28;19933;-58
2022/01/22 09:55:15;;;;;;;;;;;-2.60;99.90;;;;;;4124631;28;20491;-61
2022/01/22 09:57:16;;;;;;;;;;;-2.60;99.90;;;;;;4125316;28;19922;-59
2022/01/22 09:59:17;;;;;;;;;;;-2.50;99.90;;;;;;4125118;28;19910;-61
2022/01/22 10:01:20;;;;;;;;;;;-2.40;99.90;;;;;;4125947;28;19964;-59
2022/01/22 10:03:21;;;;;;;;;;;-2.30;99.90;;;;;;4125042;28;19982;-61
2022/01/22 10:05:25;;;;;;;;;;;-2.20;99.90;;;;;;4125401;28;20437;-61
2022/01/22 10:07:26;;;;;;;;;;;-2.10;99.90;;;;;;4124803;28;20278;-59
2022/01/22 10:09:34;;;;;;;;;;;-2.10;99.90;;;;;;4125353;28;19916;-59
2022/01/22 10:11:35;;;;;;;;;;;-2.10;99.90;;;;;;4124555;28;19909;-59
2022/01/22 10:13:36;;;;;;;;;;;-2.00;99.90;;;;;;4124437;28;19945;-61
2022/01/22 10:15:39;;;;;;;;;;;-1.90;99.90;;;;;;4124633;28;19963;-60
2022/01/22 10:17:42;;;;;;;;;;;-1.80;99.90;;;;;;4125021;28;20259;-61
2022/01/22 10:19:43;;;;;;;;;;;-1.70;99.90;;;;;;4124986;28;19909;-61
2022/01/22 10:22:10;;;;;;;;;;;-1.70;99.90;;;;;;4124685;28;19918;-60
2022/01/22 10:24:43;;;;;;;;;;;-1.70;99.90;;;;;;4124985;28;19953;-60
2022/01/22 10:26:44;;;;;;;;;;;-1.60;99.90;;;;;;4123722;28;19910;-59
2022/01/22 10:28:48;;;;;;;;;;;-1.60;99.90;;;;;;4123738;28;19917;-59
2022/01/22 10:30:53;;;;;;;;;;;-1.60;99.90;;;;;;4124161;28;19968;-60
2022/01/22 10:33:09;;;;;;;;;;;-1.60;99.90;;;;;;4124575;28;19980;-61
2022/01/22 10:35:12;;;;;;;;;;;-1.50;99.90;;;;;;4124952;28;19960;-58
2022/01/22 10:37:26;;;;;;;;;;;-1.60;99.90;;;;;;4124373;28;19917;-60
2022/01/22 10:39:27;;;;;;;;;;;-1.80;99.90;;;;;;4124434;28;19910;-60
2022/01/22 10:41:46;;;;;;;;;;;-1.90;99.90;;;;;;4124276;28;19914;-60
2022/01/22 10:43:52;;;;;;;;;;;-1.90;99.90;;;;;;4124346;28;19905;-59
2022/01/22 10:46:02;;;;;;;;;;;-2.00;99.90;;;;;;4124473;28;19971;-59
2022/01/22 10:48:13;;;;;;;;;;;-2.00;99.90;;;;;;4123438;28;20515;-60
2022/01/22 10:50:18;;;;;;;;;;;-2.00;99.90;;;;;;4124293;28;20325;-62
2022/01/22 10:52:18;;;;;;;;;;;-2.00;99.90;;;;;;4123777;28;20016;-60
2022/01/22 10:54:27;;;;;;;;;;;-1.90;99.90;;;;;;4124418;28;19905;-61
2022/01/22 10:56:29;;;;;;;;;;;-1.80;99.90;;;;;;4124039;28;19925;-59
2022/01/22 10:58:32;;;;;;;;;;;-1.80;99.90;;;;;;4123944;28;20012;-59
2022/01/22 11:00:34;;;;;;;;;;;-1.80;99.90;;;;;;4124426;28;20329;-61
2022/01/22 11:02:36;;;;;;;;;;;-1.70;99.90;;;;;;4124490;28;19969;-61
2022/01/22 11:04:37;;;;;;;;;;;-1.70;99.90;;;;;;4123423;28;20296;-61
2022/01/22 11:06:39;;;;;;;;;;;-1.60;99.90;;;;;;4124566;28;20021;-61
2022/01/22 11:08:45;;;;;;;;;;;-1.60;99.90;;;;;;4123817;28;19964;-61
2022/01/22 11:10:46;;;;;;;;;;;-1.70;99.90;;;;;;4121940;28;19995;-61
2022/01/22 11:12:47;;;;;;;;;;;-1.80;99.90;;;;;;4120337;28;19916;-60
2022/01/22 11:14:48;;;;;;;;;;;-1.80;99.90;;;;;;4122394;28;19957;-61
2022/01/22 11:16:50;;;;;;;;;;;-1.80;99.90;;;;;;4123509;28;19914;-59
2022/01/22 11:18:52;;;;;;;;;;;-1.80;99.90;;;;;;4123264;28;19988;-61
2022/01/22 11:20:53;;;;;;;;;;;-1.80;99.90;;;;;;4123824;28;20377;-60
2022/01/22 11:33:27;;;;;;;;;;;-1.80;99.90;;;;;;4205170;27;19990;-61
2022/01/22 11:35:49;;;;;;;;;;;-1.70;99.90;;;;;;4203746;28;20331;-61
2022/01/22 11:38:04;;;;;;;;;;;-1.80;99.90;;;;;;4204764;28;19912;-60
2022/01/22 11:40:08;;;;;;;;;;;-1.70;99.90;;;;;;4185132;28;19909;-54
2022/01/22 11:42:09;;;;;;;;;;;-1.60;99.90;;;;;;4205081;28;19986;-60
2022/01/22 11:44:15;;;;;;;;;;;-1.60;99.90;;;;;;4203763;28;20460;-60
2022/01/22 11:46:26;;;;;;;;;;;-1.60;99.90;;;;;;4204988;28;19916;-61
2022/01/22 11:48:30;;;;;;;;;;;-1.60;99.90;;;;;;4204391;28;20392;-61
2022/01/22 11:50:31;;;;;;;;;;;-1.60;99.90;;;;;;4204912;28;19942;-60
2022/01/22 11:52:37;;;;;;;;;;;-1.60;99.90;;;;;;4204156;28;19950;-59
2022/01/22 11:55:07;;;;;;;;;;;-1.50;99.90;;;;;;4204743;28;19973;-57
2022/01/22 11:57:14;;;;;;;;;;;-1.50;99.90;;;;;;4185799;28;19958;-60
2022/01/22 11:59:25;;;;;;;;;;;-1.40;99.90;;;;;;4204068;28;19916;-60
2022/01/22 12:01:52;;;;;;;;;;;-1.50;99.90;;;;;;4203388;28;19981;-60
2022/01/22 12:03:56;;;;;;;;;;;-1.60;99.90;;;;;;4204266;28;20372;-61
2022/01/22 12:06:00;;;;;;;;;;;-1.80;99.90;;;;;;4203480;28;19977;-60
2022/01/22 12:08:01;;;;;;;;;;;-1.80;99.90;;;;;;4204470;28;19912;-60
2022/01/22 12:10:16;;;;;;;;;;;-1.80;99.90;;;;;;4203336;28;19912;-61
2022/01/22 12:14:47;;;;;;;;;;;-1.80;99.90;;;;;;4203091;28;20350;-64
2022/01/22 12:16:48;;;;;;;;;;;-1.70;99.90;;;;;;4204118;28;20237;-58
2022/01/22 12:18:57;;;;;;;;;;;-1.60;99.90;;;;;;4184658;28;19912;-60
2022/01/22 12:22:59;;;;;;;;;;;-1.50;99.90;;;;;;4202668;28;19972;-61
2022/01/22 12:25:02;;;;;;;;;;;-1.50;99.90;;;;;;4204406;28;20364;-61
2022/01/22 12:27:07;;;;;;;;;;;-1.60;99.90;;;;;;4202859;28;19912;-61
2022/01/22 12:29:38;;;;;;;;;;;-1.60;99.90;;;;;;4204275;28;19912;-60
2022/01/22 12:31:58;;;;;;;;;;;-1.60;99.90;;;;;;4179635;28;19970;-57
2022/01/22 12:34:02;;;;;;;;;;;-1.50;99.90;;;;;;4195190;28;20855;-62
2022/01/22 12:36:03;;;;;;;;;;;-1.50;99.90;;;;;;4191248;28;19942;-61
2022/01/22 12:38:49;;;;;;;;;;;-1.60;99.90;;;;;;4192723;28;19946;-60
2022/01/22 12:40:55;;;;;;;;;;;-1.60;99.90;;;;;;4181707;28;20060;-61
2022/01/22 12:43:07;;;;;;;;;;;-1.60;99.90;;;;;;4192132;28;19974;-61
2022/01/22 12:45:08;;;;;;;;;;;-1.60;99.90;;;;;;4191758;28;19928;-59
2022/01/22 12:47:13;;;;;;;;;;;-1.70;99.90;;;;;;4191878;28;20432;-60
2022/01/22 12:49:14;;;;;;;;;;;-1.80;99.90;;;;;;4191403;28;19963;-61
2022/01/22 12:51:15;;;;;;;;;;;-1.80;99.90;;;;;;4192609;28;20070;-61
2022/01/22 12:53:17;;;;;;;;;;;-1.80;99.90;;;;;;4191232;28;19920;-60
2022/01/22 12:55:20;;;;;;;;;;;-1.90;99.90;;;;;;4191437;28;19916;-59
2022/01/22 12:57:22;;;;;;;;;;;-1.90;99.90;;;;;;4190017;28;19908;-59
2022/01/22 12:59:23;;;;;;;;;;;-1.90;99.90;;;;;;4192450;28;20360;-61
2022/01/22 13:01:27;;;;;;;;;;;-1.90;99.90;;;;;;4191458;28;19968;-61
2022/01/22 13:03:35;;;;;;;;;;;-1.90;99.90;;;;;;4191957;28;20319;-58
2022/01/22 13:05:36;;;;;;;;;;;-1.80;99.90;;;;;;4191233;28;20422;-60
2022/01/22 13:07:41;;;;;;;;;;;-1.80;99.90;;;;;;4192222;28;19912;-59
2022/01/22 13:09:46;;;;;;;;;;;-1.80;99.90;;;;;;4190322;28;19918;-62
2022/01/22 13:11:49;;;;;;;;;;;-1.80;99.90;;;;;;4192399;28;20331;-60
2022/01/22 13:13:50;;;;;;;;;;;-1.80;99.90;;;;;;4191330;28;19958;-60
2022/01/22 13:16:02;;;;;;;;;;;-1.80;99.90;;;;;;4191143;28;19996;-61
2022/01/22 13:18:03;;;;;;;;;;;-1.70;99.90;;;;;;4191623;28;19916;-61
2022/01/22 13:20:06;;;;;;;;;;;-1.70;99.90;;;;;;4191614;28;20351;-61
2022/01/22 13:22:07;;;;;;;;;;;-1.70;99.90;;;;;;4191173;28;19936;-61
2022/01/22 13:24:09;;;;;;;;;;;-1.70;99.90;;;;;;4206320;28;19973;-61
2022/01/22 13:26:10;;;;;;;;;;;-1.70;99.90;;;;;;4208353;28;19920;-60
2022/01/22 13:28:12;;;;;;;;;;;-1.70;99.90;;;;;;4207971;28;19916;-58
2022/01/22 13:30:14;;;;;;;;;;;-1.80;99.90;;;;;;4209234;28;19993;-60
2022/01/22 13:32:28;;;;;;;;;;;-1.80;99.90;;;;;;4207622;28;19977;-60
2022/01/22 13:34:41;;;;;;;;;;;-1.80;99.90;;;;;;4208580;28;19908;-61
2022/01/22 13:37:15;;;;;;;;;;;-1.80;99.90;;;;;;4207705;28;19938;-59